x

Molasses Reef, Fl (mlrf1) Weather Station

3:00am - Sat 27th Dec 2014 All times are EST. -5 hours from GMT.

  • Wind
    11mph, 13mph gusts
  • Sea Temp 78°f
  • Air Temp 76°f
  • Sea Pressure 1020.3mb
  • Molasses Reef, Fl
  • Molasses Reef, Fl

More Historic Weather Station data

Upgrade to MSW Pro to gain access to the past 30 days of data for over 8000 Wavebouys and Weather Stations around the globe.

Join Pro

Comparision Forecast

View Surf forecast
   
Sat 12/27 3:00am 11 13 mph 1020.3mb 78f 76f
2:00am 10 11 mph 1020.5mb 78f 76f
1:00am 11 13 mph 1020.8mb 78f 77f
12:00am 10 11 mph 1021.3mb 78f 77f
Fri 12/26 11:00pm 10
mph
1021.8mb 78f 77f
10:00pm 9 10 mph 1021.8mb 78f 77f
9:00pm 9
mph
1021.7mb 78f 75f
8:00pm 8
mph
1021.3mb 78f 76f
7:00pm 10 11 mph 1020.9mb 78f 75f
6:00pm 6
mph
1020.6mb 78f 77f
5:00pm 5 6 mph 1020mb 77f 77f
4:00pm 5 6 mph 1019.5mb 78f 78f
3:00pm 8 9 mph 1019.5mb 78f 77f
2:00pm 6 7 mph 1019.8mb 78f 77f
1:00pm 10 11 mph 1020.1mb 78f 77f
12:00pm 9 10 mph 1021.1mb 78f 77f
11:00am 7 8 mph 1021.8mb 78f 77f
10:00am 7 8 mph 1021.8mb 78f 73f
9:00am 11 13 mph 1021.2mb 77f 72f
8:00am 8 9 mph 1020.7mb 77f 72f
7:00am 13 15 mph 1020.1mb 77f 76f
6:00am 14 15 mph 1019.7mb 77f 76f
5:00am 15 16 mph 1019.3mb 76f 76f
4:00am 14 15 mph 1019.6mb 76f 74f
3:00am 15 16 mph 1019.9mb 77f 73f
2:00am 15 16 mph 1020.1mb 77f 72f
1:00am 16 17 mph 1020.5mb 77f 72f
12:00am 20 22 mph 1020.4mb 77f 73f
Thu 12/25 11:00pm 22 24 mph 1020.6mb 77f 74f
10:00pm 24 26 mph 1020.9mb 77f 73f
9:00pm 18 21 mph 1020.9mb 77f 73f
8:00pm 28 29 mph 1020.3mb 77f 72f
7:00pm 28 30 mph 1020.1mb 77f 72f
6:00pm 29 31 mph 1019.6mb 77f 71f
5:00pm 25 28 mph 1019.4mb 77f 71f
4:00pm 23 25 mph 1018.9mb 78f 71f
3:00pm 21 22 mph 1018.9mb 78f 71f
2:00pm 17 20 mph 1019.2mb 78f 71f
1:00pm 21 22 mph 1019.1mb 78f 71f
12:00pm 17 18 mph 1019.9mb 78f 71f
11:00am 17
mph
1020.7mb 78f 71f
10:00am 18 20 mph 1020.1mb 78f 71f
9:00am 20 21 mph 1019.4mb 78f 71f
8:00am 10
mph
1018.9mb 78f 73f
7:00am 13
mph
1017.5mb 78f 75f
6:00am 17 18 mph 1016.6mb 78f 77f
5:00am 25 28 mph 1016.1mb 78f 72f
4:00am 9 10 mph 1016.2mb 78f 73f
3:00am 18 20 mph 1016.3mb 78f 74f
2:00am 15 18 mph 1016.1mb 78f 75f
1:00am 21 22 mph 1015.6mb 78f 77f
12:00am 21 22 mph 1015.6mb 78f 79f
Wed 12/24 11:00pm 21 22 mph 1015.5mb 78f 79f
10:00pm 18 21 mph 1015.7mb 78f 79f
9:00pm 16 18 mph 1015.5mb 78f 78f
8:00pm 18 21 mph 1015mb 78f 78f
7:00pm 14 16 mph 1014.5mb 78f 78f
6:00pm 16 17 mph 1014.1mb 78f 78f
5:00pm 15 17 mph 1014mb 78f 78f
4:00pm 14 15 mph 1013.6mb 78f 78f
3:00pm 15 16 mph 1013.5mb 78f 78f
2:00pm 15 17 mph 1013.6mb 78f 78f
1:00pm 17 20 mph 1013.7mb 78f 78f
12:00pm 18 21 mph 1014.4mb 78f 78f
11:00am 16 20 mph 1015mb 78f 78f
10:00am 20 22 mph 1015.1mb 78f 78f
9:00am 18 20 mph 1014.7mb 78f 78f
8:00am 20 22 mph 1014.1mb 78f 78f
7:00am 22 24 mph 1013.3mb 78f 78f
6:00am 20 22 mph 1012.9mb 78f 78f
5:00am 20 22 mph 1013mb 78f 78f
4:00am 21 23 mph 1012.8mb 78f 78f
3:00am 20 23 mph 1013mb 78f 78f
2:00am 22 25 mph 1013.5mb 78f 77f
1:00am 24 26 mph 1013mb 78f 77f
12:00am 24 26 mph 1012.8mb 78f 77f
Tue 12/23 11:00pm 25 29 mph 1013.6mb 78f 77f
10:00pm 24 25 mph 1013.9mb 78f 77f
9:00pm 18 21 mph 1014.2mb 78f 77f
8:00pm 20 21 mph 1014mb 78f 77f
7:00pm 18 21 mph 1013.4mb 78f 78f
6:00pm 24 26 mph 1012.8mb 78f 78f
5:00pm 20 22 mph 1012.8mb 78f 78f
4:00pm 21 23 mph 1012.9mb 78f 78f
3:00pm 18 20 mph 1012.8mb 78f 78f
2:00pm 20 22 mph 1013.1mb 78f 78f
1:00pm 20 22 mph 1013.6mb 78f 78f
12:00pm 20 22 mph 1014.4mb 78f 78f
11:00am 18 22 mph 1015.1mb 78f 78f
10:00am 18 21 mph 1015.6mb 78f 78f